sensor_id;sensor_type;location;lat;lon;timestamp;P1;durP1;ratioP1;P2;durP2;ratioP2
21569;SDS011;57598;50.888;4.746;2024-03-23T00:54:38;167.20;;;151.60;;
21569;SDS011;57598;50.888;4.746;2024-03-23T00:57:05;153.00;;;137.98;;
21569;SDS011;57598;50.888;4.746;2024-03-23T00:59:31;148.95;;;134.40;;
21569;SDS011;57598;50.888;4.746;2024-03-23T01:01:58;142.82;;;128.98;;
21569;SDS011;57598;50.888;4.746;2024-03-23T01:04:24;139.13;;;125.65;;
21569;SDS011;57598;50.888;4.746;2024-03-23T01:06:52;131.75;;;118.95;;
21569;SDS011;57598;50.888;4.746;2024-03-23T01:09:18;123.18;;;110.53;;
21569;SDS011;57598;50.888;4.746;2024-03-23T01:11:46;118.63;;;106.45;;
21569;SDS011;57598;50.888;4.746;2024-03-23T01:14:13;115.38;;;102.90;;
21569;SDS011;57598;50.888;4.746;2024-03-23T01:16:40;118.63;;;106.32;;
21569;SDS011;57598;50.888;4.746;2024-03-23T01:19:07;117.13;;;104.93;;
21569;SDS011;57598;50.888;4.746;2024-03-23T01:21:33;124.47;;;111.97;;
21569;SDS011;57598;50.888;4.746;2024-03-23T01:24:00;124.53;;;111.82;;
21569;SDS011;57598;50.888;4.746;2024-03-23T01:26:27;127.28;;;114.65;;
21569;SDS011;57598;50.888;4.746;2024-03-23T01:28:55;124.53;;;112.22;;
21569;SDS011;57598;50.888;4.746;2024-03-23T01:31:21;122.45;;;110.22;;
21569;SDS011;57598;50.888;4.746;2024-03-23T01:33:49;118.43;;;106.40;;
21569;SDS011;57598;50.888;4.746;2024-03-23T01:36:15;117.20;;;105.43;;
21569;SDS011;57598;50.888;4.746;2024-03-23T01:38:43;109.88;;;98.47;;
21569;SDS011;57598;50.888;4.746;2024-03-23T01:41:09;111.70;;;100.15;;
21569;SDS011;57598;50.888;4.746;2024-03-23T01:43:36;106.60;;;95.47;;
21569;SDS011;57598;50.888;4.746;2024-03-23T01:46:04;105.50;;;94.45;;
21569;SDS011;57598;50.888;4.746;2024-03-23T01:48:31;104.35;;;92.57;;
21569;SDS011;57598;50.888;4.746;2024-03-23T01:50:57;103.22;;;92.63;;
21569;SDS011;57598;50.888;4.746;2024-03-23T01:53:25;99.82;;;89.43;;
21569;SDS011;57598;50.888;4.746;2024-03-23T01:55:51;97.07;;;86.72;;
21569;SDS011;57598;50.888;4.746;2024-03-23T01:58:18;115.13;;;103.65;;
21569;SDS011;57598;50.888;4.746;2024-03-23T02:00:44;111.45;;;100.20;;
21569;SDS011;57598;50.888;4.746;2024-03-23T02:03:26;108.95;;;97.75;;
21569;SDS011;57598;50.888;4.746;2024-03-23T02:05:52;105.72;;;94.82;;
21569;SDS011;57598;50.888;4.746;2024-03-23T02:08:20;102.38;;;91.80;;
21569;SDS011;57598;50.888;4.746;2024-03-23T02:10:46;100.40;;;89.93;;
21569;SDS011;57598;50.888;4.746;2024-03-23T02:13:14;103.10;;;92.60;;
21569;SDS011;57598;50.888;4.746;2024-03-23T02:15:40;103.47;;;92.97;;
21569;SDS011;57598;50.888;4.746;2024-03-23T02:18:08;101.22;;;90.82;;
21569;SDS011;57598;50.888;4.746;2024-03-23T02:20:35;100.28;;;89.93;;
21569;SDS011;57598;50.888;4.746;2024-03-23T02:23:04;99.47;;;89.07;;
21569;SDS011;57598;50.888;4.746;2024-03-23T02:25:31;99.85;;;89.32;;
21569;SDS011;57598;50.888;4.746;2024-03-23T02:27:58;92.80;;;82.90;;
21569;SDS011;57598;50.888;4.746;2024-03-23T02:30:25;92.78;;;83.00;;
21569;SDS011;57598;50.888;4.746;2024-03-23T02:32:52;92.78;;;83.07;;
21569;SDS011;57598;50.888;4.746;2024-03-23T02:35:18;91.88;;;82.18;;
21569;SDS011;57598;50.888;4.746;2024-03-23T02:37:46;92.25;;;82.55;;
21569;SDS011;57598;50.888;4.746;2024-03-23T02:40:14;85.07;;;75.55;;
21569;SDS011;57598;50.888;4.746;2024-03-23T02:42:42;88.45;;;78.90;;
21569;SDS011;57598;50.888;4.746;2024-03-23T02:45:08;86.50;;;77.07;;
21569;SDS011;57598;50.888;4.746;2024-03-23T02:47:35;88.18;;;78.78;;
21569;SDS011;57598;50.888;4.746;2024-03-23T02:50:01;94.55;;;76.43;;
21569;SDS011;57598;50.888;4.746;2024-03-23T02:52:29;83.80;;;72.38;;
21569;SDS011;57598;50.888;4.746;2024-03-23T02:54:56;84.28;;;75.10;;
21569;SDS011;57598;50.888;4.746;2024-03-23T02:57:24;83.75;;;72.18;;
21569;SDS011;57598;50.888;4.746;2024-03-23T02:59:50;84.20;;;71.43;;
21569;SDS011;57598;50.888;4.746;2024-03-23T03:02:18;84.03;;;69.18;;
21569;SDS011;57598;50.888;4.746;2024-03-23T03:04:44;83.38;;;67.40;;
21569;SDS011;57598;50.888;4.746;2024-03-23T03:07:11;84.68;;;69.68;;
21569;SDS011;57598;50.888;4.746;2024-03-23T03:09:37;82.97;;;68.25;;
21569;SDS011;57598;50.888;4.746;2024-03-23T03:12:05;82.00;;;66.63;;
21569;SDS011;57598;50.888;4.746;2024-03-23T03:14:32;82.38;;;66.88;;
21569;SDS011;57598;50.888;4.746;2024-03-23T03:17:00;81.55;;;65.53;;
21569;SDS011;57598;50.888;4.746;2024-03-23T03:19:26;81.82;;;65.10;;
21569;SDS011;57598;50.888;4.746;2024-03-23T03:21:53;81.53;;;63.17;;
21569;SDS011;57598;50.888;4.746;2024-03-23T03:24:19;80.35;;;63.55;;
21569;SDS011;57598;50.888;4.746;2024-03-23T03:26:47;78.63;;;62.20;;
21569;SDS011;57598;50.888;4.746;2024-03-23T03:29:14;78.95;;;61.47;;
21569;SDS011;57598;50.888;4.746;2024-03-23T03:31:43;78.38;;;61.10;;
21569;SDS011;57598;50.888;4.746;2024-03-23T03:34:09;78.20;;;61.10;;
21569;SDS011;57598;50.888;4.746;2024-03-23T03:36:37;79.75;;;63.53;;
21569;SDS011;57598;50.888;4.746;2024-03-23T03:39:03;78.00;;;60.90;;
21569;SDS011;57598;50.888;4.746;2024-03-23T03:41:31;78.30;;;62.67;;
21569;SDS011;57598;50.888;4.746;2024-03-23T03:43:57;78.38;;;58.22;;
21569;SDS011;57598;50.888;4.746;2024-03-23T03:46:27;75.75;;;59.70;;
21569;SDS011;57598;50.888;4.746;2024-03-23T03:48:55;73.78;;;56.88;;
21569;SDS011;57598;50.888;4.746;2024-03-23T03:51:22;76.63;;;55.92;;
21569;SDS011;57598;50.888;4.746;2024-03-23T03:53:48;74.53;;;56.80;;
21569;SDS011;57598;50.888;4.746;2024-03-23T03:56:16;70.10;;;54.17;;
21569;SDS011;57598;50.888;4.746;2024-03-23T03:58:42;68.35;;;50.63;;
21569;SDS011;57598;50.888;4.746;2024-03-23T04:01:09;69.47;;;51.60;;
21569;SDS011;57598;50.888;4.746;2024-03-23T04:03:35;68.40;;;50.88;;
21569;SDS011;57598;50.888;4.746;2024-03-23T04:06:06;68.28;;;50.80;;
21569;SDS011;57598;50.888;4.746;2024-03-23T04:08:32;67.07;;;50.67;;
21569;SDS011;57598;50.888;4.746;2024-03-23T04:10:59;67.45;;;50.05;;
21569;SDS011;57598;50.888;4.746;2024-03-23T04:13:26;69.70;;;53.00;;
21569;SDS011;57598;50.888;4.746;2024-03-23T04:15:53;67.28;;;51.78;;
21569;SDS011;57598;50.888;4.746;2024-03-23T04:18:20;67.90;;;52.05;;
21569;SDS011;57598;50.888;4.746;2024-03-23T04:20:48;67.10;;;51.50;;
21569;SDS011;57598;50.888;4.746;2024-03-23T04:23:15;66.30;;;52.33;;
21569;SDS011;57598;50.888;4.746;2024-03-23T04:25:42;64.97;;;50.60;;
21569;SDS011;57598;50.888;4.746;2024-03-23T04:28:09;75.55;;;52.75;;
21569;SDS011;57598;50.888;4.746;2024-03-23T04:30:36;66.43;;;50.13;;
21569;SDS011;57598;50.888;4.746;2024-03-23T04:33:02;66.75;;;51.75;;
21569;SDS011;57598;50.888;4.746;2024-03-23T04:35:30;64.90;;;50.92;;
21569;SDS011;57598;50.888;4.746;2024-03-23T04:37:56;62.65;;;47.58;;
21569;SDS011;57598;50.888;4.746;2024-03-23T04:40:26;67.03;;;50.08;;
21569;SDS011;57598;50.888;4.746;2024-03-23T04:42:53;66.68;;;48.95;;
21569;SDS011;57598;50.888;4.746;2024-03-23T04:45:20;70.30;;;51.08;;
21569;SDS011;57598;50.888;4.746;2024-03-23T04:47:47;71.60;;;52.78;;
21569;SDS011;57598;50.888;4.746;2024-03-23T04:50:15;77.25;;;52.60;;
21569;SDS011;57598;50.888;4.746;2024-03-23T04:52:43;72.35;;;52.40;;
21569;SDS011;57598;50.888;4.746;2024-03-23T04:55:10;72.80;;;51.20;;
21569;SDS011;57598;50.888;4.746;2024-03-23T04:57:41;70.82;;;50.45;;
21569;SDS011;57598;50.888;4.746;2024-03-23T05:00:08;71.45;;;50.83;;
21569;SDS011;57598;50.888;4.746;2024-03-23T05:02:42;73.10;;;51.45;;
21569;SDS011;57598;50.888;4.746;2024-03-23T05:05:08;73.07;;;51.95;;
21569;SDS011;57598;50.888;4.746;2024-03-23T05:07:36;73.68;;;52.03;;
21569;SDS011;57598;50.888;4.746;2024-03-23T05:10:02;72.85;;;51.03;;
21569;SDS011;57598;50.888;4.746;2024-03-23T05:12:30;76.32;;;54.92;;
21569;SDS011;57598;50.888;4.746;2024-03-23T05:14:57;76.75;;;54.92;;
21569;SDS011;57598;50.888;4.746;2024-03-23T05:17:25;74.93;;;54.97;;
21569;SDS011;57598;50.888;4.746;2024-03-23T05:19:51;80.30;;;58.15;;
21569;SDS011;57598;50.888;4.746;2024-03-23T05:22:18;85.25;;;60.70;;
21569;SDS011;57598;50.888;4.746;2024-03-23T05:24:44;82.88;;;60.13;;
21569;SDS011;57598;50.888;4.746;2024-03-23T05:27:12;86.20;;;61.08;;
21569;SDS011;57598;50.888;4.746;2024-03-23T05:29:38;82.15;;;60.08;;
21569;SDS011;57598;50.888;4.746;2024-03-23T05:32:07;81.68;;;61.50;;
21569;SDS011;57598;50.888;4.746;2024-03-23T05:34:33;74.30;;;56.35;;
21569;SDS011;57598;50.888;4.746;2024-03-23T05:37:00;87.95;;;61.45;;
21569;SDS011;57598;50.888;4.746;2024-03-23T05:39:26;81.53;;;62.22;;
21569;SDS011;57598;50.888;4.746;2024-03-23T05:41:54;83.22;;;64.18;;
21569;SDS011;57598;50.888;4.746;2024-03-23T05:44:20;84.25;;;66.32;;
21569;SDS011;57598;50.888;4.746;2024-03-23T05:46:47;80.78;;;64.75;;
21569;SDS011;57598;50.888;4.746;2024-03-23T05:49:15;80.45;;;66.53;;
21569;SDS011;57598;50.888;4.746;2024-03-23T05:51:43;78.57;;;63.05;;
21569;SDS011;57598;50.888;4.746;2024-03-23T05:54:09;97.65;;;64.47;;
21569;SDS011;57598;50.888;4.746;2024-03-23T05:56:37;82.13;;;69.45;;
21569;SDS011;57598;50.888;4.746;2024-03-23T05:59:03;78.55;;;68.07;;
21569;SDS011;57598;50.888;4.746;2024-03-23T06:01:30;77.88;;;69.38;;
21569;SDS011;57598;50.888;4.746;2024-03-23T06:03:57;76.93;;;68.43;;
21569;SDS011;57598;50.888;4.746;2024-03-23T06:06:27;76.38;;;67.97;;
21569;SDS011;57598;50.888;4.746;2024-03-23T06:08:55;77.10;;;68.85;;
21569;SDS011;57598;50.888;4.746;2024-03-23T06:11:22;92.10;;;67.97;;
21569;SDS011;57598;50.888;4.746;2024-03-23T06:13:48;75.95;;;67.88;;
21569;SDS011;57598;50.888;4.746;2024-03-23T06:16:15;75.55;;;67.45;;
21569;SDS011;57598;50.888;4.746;2024-03-23T06:18:42;80.10;;;71.60;;
21569;SDS011;57598;50.888;4.746;2024-03-23T06:21:12;75.80;;;67.43;;
21569;SDS011;57598;50.888;4.746;2024-03-23T06:23:40;75.65;;;67.55;;
21569;SDS011;57598;50.888;4.746;2024-03-23T06:26:08;78.63;;;70.43;;
21569;SDS011;57598;50.888;4.746;2024-03-23T06:28:34;78.95;;;70.72;;
21569;SDS011;57598;50.888;4.746;2024-03-23T06:31:02;79.25;;;70.88;;
21569;SDS011;57598;50.888;4.746;2024-03-23T06:33:28;79.80;;;71.30;;
21569;SDS011;57598;50.888;4.746;2024-03-23T06:35:55;84.25;;;71.93;;
21569;SDS011;57598;50.888;4.746;2024-03-23T06:38:22;78.07;;;69.95;;
21569;SDS011;57598;50.888;4.746;2024-03-23T06:40:51;74.20;;;66.80;;
21569;SDS011;57598;50.888;4.746;2024-03-23T06:43:18;75.38;;;67.28;;
21569;SDS011;57598;50.888;4.746;2024-03-23T06:45:49;78.95;;;71.05;;
21569;SDS011;57598;50.888;4.746;2024-03-23T06:48:18;79.20;;;71.18;;
21569;SDS011;57598;50.888;4.746;2024-03-23T06:50:45;75.82;;;68.03;;
21569;SDS011;57598;50.888;4.746;2024-03-23T06:53:11;75.47;;;68.07;;
21569;SDS011;57598;50.888;4.746;2024-03-23T06:55:39;80.75;;;72.10;;
21569;SDS011;57598;50.888;4.746;2024-03-23T06:58:06;79.03;;;70.97;;
21569;SDS011;57598;50.888;4.746;2024-03-23T07:00:35;79.35;;;71.10;;
21569;SDS011;57598;50.888;4.746;2024-03-23T07:03:02;78.60;;;70.93;;
21569;SDS011;57598;50.888;4.746;2024-03-23T07:05:32;79.75;;;71.88;;
21569;SDS011;57598;50.888;4.746;2024-03-23T07:07:58;82.65;;;74.88;;
21569;SDS011;57598;50.888;4.746;2024-03-23T07:10:25;79.05;;;71.60;;
21569;SDS011;57598;50.888;4.746;2024-03-23T07:12:51;81.38;;;73.57;;
21569;SDS011;57598;50.888;4.746;2024-03-23T07:15:20;80.55;;;73.25;;
21569;SDS011;57598;50.888;4.746;2024-03-23T07:17:46;79.47;;;72.03;;
21569;SDS011;57598;50.888;4.746;2024-03-23T07:20:14;77.88;;;70.18;;
21569;SDS011;57598;50.888;4.746;2024-03-23T07:22:40;77.22;;;70.45;;
21569;SDS011;57598;50.888;4.746;2024-03-23T07:25:08;80.38;;;73.13;;
21569;SDS011;57598;50.888;4.746;2024-03-23T07:27:34;79.75;;;73.35;;
21569;SDS011;57598;50.888;4.746;2024-03-23T07:30:01;80.15;;;73.63;;
21569;SDS011;57598;50.888;4.746;2024-03-23T07:32:29;84.03;;;77.57;;
21569;SDS011;57598;50.888;4.746;2024-03-23T07:34:56;82.90;;;76.07;;
21569;SDS011;57598;50.888;4.746;2024-03-23T07:37:22;80.22;;;74.07;;
21569;SDS011;57598;50.888;4.746;2024-03-23T07:39:50;85.20;;;78.45;;
21569;SDS011;57598;50.888;4.746;2024-03-23T07:42:18;79.15;;;72.32;;
21569;SDS011;57598;50.888;4.746;2024-03-23T07:44:44;77.40;;;71.40;;
21569;SDS011;57598;50.888;4.746;2024-03-23T07:47:12;79.82;;;73.45;;
21569;SDS011;57598;50.888;4.746;2024-03-23T07:49:40;78.25;;;72.35;;
21569;SDS011;57598;50.888;4.746;2024-03-23T07:52:07;78.20;;;72.40;;
21569;SDS011;57598;50.888;4.746;2024-03-23T07:54:33;77.53;;;71.57;;
21569;SDS011;57598;50.888;4.746;2024-03-23T07:57:00;73.10;;;68.10;;
21569;SDS011;57598;50.888;4.746;2024-03-23T07:59:26;78.32;;;72.88;;
21569;SDS011;57598;50.888;4.746;2024-03-23T08:01:57;76.45;;;71.38;;
21569;SDS011;57598;50.888;4.746;2024-03-23T08:04:23;70.43;;;66.00;;
21569;SDS011;57598;50.888;4.746;2024-03-23T08:06:51;65.28;;;61.13;;
21569;SDS011;57598;50.888;4.746;2024-03-23T08:09:18;56.22;;;52.88;;
21569;SDS011;57598;50.888;4.746;2024-03-23T08:11:45;46.20;;;43.47;;
21569;SDS011;57598;50.888;4.746;2024-03-23T08:14:11;39.60;;;37.22;;
21569;SDS011;57598;50.888;4.746;2024-03-23T08:16:39;37.58;;;35.20;;
21569;SDS011;57598;50.888;4.746;2024-03-23T08:19:06;33.70;;;31.50;;
21569;SDS011;57598;50.888;4.746;2024-03-23T08:21:34;32.40;;;30.10;;
21569;SDS011;57598;50.888;4.746;2024-03-23T08:24:02;29.90;;;28.00;;
21569;SDS011;57598;50.888;4.746;2024-03-23T08:26:30;27.30;;;25.70;;
21569;SDS011;57598;50.888;4.746;2024-03-23T08:28:56;27.75;;;25.92;;
21569;SDS011;57598;50.888;4.746;2024-03-23T08:31:23;27.42;;;25.42;;
21569;SDS011;57598;50.888;4.746;2024-03-23T08:33:50;29.05;;;27.10;;
21569;SDS011;57598;50.888;4.746;2024-03-23T08:36:17;28.30;;;26.48;;
21569;SDS011;57598;50.888;4.746;2024-03-23T08:38:43;30.70;;;28.27;;
21569;SDS011;57598;50.888;4.746;2024-03-23T08:41:12;30.48;;;28.52;;
21569;SDS011;57598;50.888;4.746;2024-03-23T08:43:39;31.75;;;29.80;;
21569;SDS011;57598;50.888;4.746;2024-03-23T08:46:07;31.33;;;29.33;;
21569;SDS011;57598;50.888;4.746;2024-03-23T08:48:34;31.42;;;29.42;;
21569;SDS011;57598;50.888;4.746;2024-03-23T08:51:01;29.50;;;27.38;;
21569;SDS011;57598;50.888;4.746;2024-03-23T08:53:28;29.83;;;27.33;;
21569;SDS011;57598;50.888;4.746;2024-03-23T08:55:55;29.70;;;27.00;;
21569;SDS011;57598;50.888;4.746;2024-03-23T08:58:24;29.30;;;27.23;;
21569;SDS011;57598;50.888;4.746;2024-03-23T09:00:51;30.88;;;28.30;;
21569;SDS011;57598;50.888;4.746;2024-03-23T09:03:17;31.00;;;28.73;;
21569;SDS011;57598;50.888;4.746;2024-03-23T09:05:45;27.88;;;26.27;;
21569;SDS011;57598;50.888;4.746;2024-03-23T09:08:11;28.65;;;26.63;;
21569;SDS011;57598;50.888;4.746;2024-03-23T09:10:38;29.88;;;27.35;;
21569;SDS011;57598;50.888;4.746;2024-03-23T09:13:05;29.58;;;27.42;;
21569;SDS011;57598;50.888;4.746;2024-03-23T09:15:34;29.30;;;27.00;;
21569;SDS011;57598;50.888;4.746;2024-03-23T09:18:00;27.95;;;26.13;;
21569;SDS011;57598;50.888;4.746;2024-03-23T09:20:27;26.38;;;24.58;;
21569;SDS011;57598;50.888;4.746;2024-03-23T09:22:53;26.08;;;24.48;;
21569;SDS011;57598;50.888;4.746;2024-03-23T09:25:21;26.33;;;24.42;;
21569;SDS011;57598;50.888;4.746;2024-03-23T09:27:47;24.55;;;23.05;;
21569;SDS011;57598;50.888;4.746;2024-03-23T09:30:14;23.67;;;22.02;;
21569;SDS011;57598;50.888;4.746;2024-03-23T09:32:42;24.52;;;22.75;;
21569;SDS011;57598;50.888;4.746;2024-03-23T09:35:10;25.83;;;24.13;;
21569;SDS011;57598;50.888;4.746;2024-03-23T09:37:36;24.75;;;22.90;;
21569;SDS011;57598;50.888;4.746;2024-03-23T09:40:05;25.27;;;23.60;;
21569;SDS011;57598;50.888;4.746;2024-03-23T09:42:32;26.60;;;24.70;;
21569;SDS011;57598;50.888;4.746;2024-03-23T09:45:00;25.25;;;23.65;;
21569;SDS011;57598;50.888;4.746;2024-03-23T09:47:26;25.48;;;23.75;;
21569;SDS011;57598;50.888;4.746;2024-03-23T09:49:55;24.45;;;23.05;;
21569;SDS011;57598;50.888;4.746;2024-03-23T09:52:22;25.73;;;24.02;;
21569;SDS011;57598;50.888;4.746;2024-03-23T09:54:49;27.45;;;25.08;;
21569;SDS011;57598;50.888;4.746;2024-03-23T09:57:15;26.15;;;24.50;;
21569;SDS011;57598;50.888;4.746;2024-03-23T09:59:42;26.77;;;24.48;;
21569;SDS011;57598;50.888;4.746;2024-03-23T10:02:09;25.85;;;24.10;;
21569;SDS011;57598;50.888;4.746;2024-03-23T10:04:42;25.13;;;23.13;;
21569;SDS011;57598;50.888;4.746;2024-03-23T10:07:13;24.08;;;22.50;;
21569;SDS011;57598;50.888;4.746;2024-03-23T10:09:42;24.30;;;22.58;;
21569;SDS011;57598;50.888;4.746;2024-03-23T10:12:09;24.50;;;22.90;;
21569;SDS011;57598;50.888;4.746;2024-03-23T10:14:37;24.95;;;23.13;;
21569;SDS011;57598;50.888;4.746;2024-03-23T10:17:11;24.30;;;22.48;;
21569;SDS011;57598;50.888;4.746;2024-03-23T10:19:39;23.55;;;22.05;;
21569;SDS011;57598;50.888;4.746;2024-03-23T10:22:06;23.38;;;21.98;;
21569;SDS011;57598;50.888;4.746;2024-03-23T10:24:34;24.02;;;22.35;;
21569;SDS011;57598;50.888;4.746;2024-03-23T10:27:01;24.95;;;23.17;;
21569;SDS011;57598;50.888;4.746;2024-03-23T10:29:28;24.60;;;22.65;;
21569;SDS011;57598;50.888;4.746;2024-03-23T10:31:56;23.90;;;22.40;;
21569;SDS011;57598;50.888;4.746;2024-03-23T10:34:33;24.85;;;23.05;;
21569;SDS011;57598;50.888;4.746;2024-03-23T10:37:00;23.50;;;22.10;;
21569;SDS011;57598;50.888;4.746;2024-03-23T10:39:27;23.77;;;22.23;;
21569;SDS011;57598;50.888;4.746;2024-03-23T10:41:56;25.23;;;23.00;;
21569;SDS011;57598;50.888;4.746;2024-03-23T10:44:23;23.38;;;21.60;;
21569;SDS011;57598;50.888;4.746;2024-03-23T10:46:54;24.65;;;22.67;;
21569;SDS011;57598;50.888;4.746;2024-03-23T10:49:24;24.00;;;22.42;;
21569;SDS011;57598;50.888;4.746;2024-03-23T10:51:51;23.48;;;21.98;;
21569;SDS011;57598;50.888;4.746;2024-03-23T10:54:18;24.58;;;22.77;;
21569;SDS011;57598;50.888;4.746;2024-03-23T10:56:45;22.67;;;21.05;;
21569;SDS011;57598;50.888;4.746;2024-03-23T10:59:14;21.75;;;20.42;;
21569;SDS011;57598;50.888;4.746;2024-03-23T11:01:53;22.88;;;21.33;;
21569;SDS011;57598;50.888;4.746;2024-03-23T11:04:29;22.20;;;20.90;;
21569;SDS011;57598;50.888;4.746;2024-03-23T11:06:56;22.50;;;21.00;;
21569;SDS011;57598;50.888;4.746;2024-03-23T11:09:38;23.77;;;22.00;;
21569;SDS011;57598;50.888;4.746;2024-03-23T11:12:25;22.25;;;20.67;;
21569;SDS011;57598;50.888;4.746;2024-03-23T11:14:53;22.90;;;20.90;;
21569;SDS011;57598;50.888;4.746;2024-03-23T11:17:21;24.42;;;22.33;;
21569;SDS011;57598;50.888;4.746;2024-03-23T11:19:52;22.90;;;21.45;;
21569;SDS011;57598;50.888;4.746;2024-03-23T11:25:13;23.65;;;22.15;;
21569;SDS011;57598;50.888;4.746;2024-03-23T11:27:40;22.27;;;20.58;;
21569;SDS011;57598;50.888;4.746;2024-03-23T11:30:12;22.83;;;21.13;;
21569;SDS011;57598;50.888;4.746;2024-03-23T11:32:39;23.10;;;21.10;;
21569;SDS011;57598;50.888;4.746;2024-03-23T11:35:06;22.05;;;20.75;;
21569;SDS011;57598;50.888;4.746;2024-03-23T11:37:35;22.50;;;20.92;;
21569;SDS011;57598;50.888;4.746;2024-03-23T11:40:14;22.63;;;20.80;;
21569;SDS011;57598;50.888;4.746;2024-03-23T11:42:43;21.85;;;20.30;;
21569;SDS011;57598;50.888;4.746;2024-03-23T11:45:09;22.20;;;20.80;;
21569;SDS011;57598;50.888;4.746;2024-03-23T11:47:38;21.88;;;20.48;;
21569;SDS011;57598;50.888;4.746;2024-03-23T11:50:05;22.10;;;20.70;;
21569;SDS011;57598;50.888;4.746;2024-03-23T11:52:32;21.02;;;19.77;;
21569;SDS011;57598;50.888;4.746;2024-03-23T11:55:05;21.55;;;20.13;;
21569;SDS011;57598;50.888;4.746;2024-03-23T11:57:33;22.65;;;21.02;;
21569;SDS011;57598;50.888;4.746;2024-03-23T11:59:59;22.25;;;20.73;;
21569;SDS011;57598;50.888;4.746;2024-03-23T12:02:27;21.98;;;20.63;;
21569;SDS011;57598;50.888;4.746;2024-03-23T12:04:54;22.10;;;20.70;;
21569;SDS011;57598;50.888;4.746;2024-03-23T12:07:21;22.25;;;20.67;;
21569;SDS011;57598;50.888;4.746;2024-03-23T12:10:02;20.75;;;19.55;;
21569;SDS011;57598;50.888;4.746;2024-03-23T12:12:29;20.80;;;19.50;;
21569;SDS011;57598;50.888;4.746;2024-03-23T12:15:03;21.38;;;20.05;;
21569;SDS011;57598;50.888;4.746;2024-03-23T12:17:31;21.35;;;19.83;;
21569;SDS011;57598;50.888;4.746;2024-03-23T12:19:58;21.48;;;20.08;;
21569;SDS011;57598;50.888;4.746;2024-03-23T12:22:25;21.23;;;19.92;;
21569;SDS011;57598;50.888;4.746;2024-03-23T12:24:52;22.73;;;21.02;;
21569;SDS011;57598;50.888;4.746;2024-03-23T12:27:19;19.83;;;18.63;;
21569;SDS011;57598;50.888;4.746;2024-03-23T12:29:45;20.73;;;19.40;;
21569;SDS011;57598;50.888;4.746;2024-03-23T12:32:12;22.30;;;20.60;;
21569;SDS011;57598;50.888;4.746;2024-03-23T12:34:39;21.75;;;20.00;;
21569;SDS011;57598;50.888;4.746;2024-03-23T12:37:07;22.02;;;20.15;;
21569;SDS011;57598;50.888;4.746;2024-03-23T12:39:34;20.80;;;19.42;;
21569;SDS011;57598;50.888;4.746;2024-03-23T12:42:02;21.27;;;19.38;;
21569;SDS011;57598;50.888;4.746;2024-03-23T12:44:28;21.05;;;19.45;;
21569;SDS011;57598;50.888;4.746;2024-03-23T12:46:55;21.70;;;20.05;;
21569;SDS011;57598;50.888;4.746;2024-03-23T12:49:22;21.73;;;20.48;;
21569;SDS011;57598;50.888;4.746;2024-03-23T12:51:53;20.33;;;19.13;;
21569;SDS011;57598;50.888;4.746;2024-03-23T12:54:21;20.98;;;19.75;;
21569;SDS011;57598;50.888;4.746;2024-03-23T12:56:49;21.13;;;19.77;;
21569;SDS011;57598;50.888;4.746;2024-03-23T12:59:15;20.67;;;19.30;;
21569;SDS011;57598;50.888;4.746;2024-03-23T13:01:43;20.52;;;19.33;;
21569;SDS011;57598;50.888;4.746;2024-03-23T13:04:09;20.23;;;18.90;;
21569;SDS011;57598;50.888;4.746;2024-03-23T13:06:37;20.77;;;19.23;;
21569;SDS011;57598;50.888;4.746;2024-03-23T13:09:03;21.35;;;19.80;;
21569;SDS011;57598;50.888;4.746;2024-03-23T13:11:32;20.55;;;19.35;;
21569;SDS011;57598;50.888;4.746;2024-03-23T13:13:58;21.58;;;20.05;;
21569;SDS011;57598;50.888;4.746;2024-03-23T13:16:26;23.10;;;21.50;;
21569;SDS011;57598;50.888;4.746;2024-03-23T13:18:52;20.55;;;19.25;;
21569;SDS011;57598;50.888;4.746;2024-03-23T13:21:19;20.70;;;19.30;;
21569;SDS011;57598;50.888;4.746;2024-03-23T13:23:46;21.27;;;19.88;;
21569;SDS011;57598;50.888;4.746;2024-03-23T13:26:15;22.00;;;20.30;;
21569;SDS011;57598;50.888;4.746;2024-03-23T13:28:42;23.23;;;21.45;;
21569;SDS011;57598;50.888;4.746;2024-03-23T13:31:10;25.98;;;20.45;;
21569;SDS011;57598;50.888;4.746;2024-03-23T13:33:36;21.45;;;20.13;;
21569;SDS011;57598;50.888;4.746;2024-03-23T13:36:04;22.90;;;20.52;;
21569;SDS011;57598;50.888;4.746;2024-03-23T13:38:30;21.60;;;20.30;;
21569;SDS011;57598;50.888;4.746;2024-03-23T13:40:59;21.08;;;19.58;;
21569;SDS011;57598;50.888;4.746;2024-03-23T13:43:26;20.77;;;19.35;;
21569;SDS011;57598;50.888;4.746;2024-03-23T13:45:55;22.05;;;20.48;;
21569;SDS011;57598;50.888;4.746;2024-03-23T13:48:22;22.13;;;20.52;;
21569;SDS011;57598;50.888;4.746;2024-03-23T13:50:56;20.75;;;19.55;;
21569;SDS011;57598;50.888;4.746;2024-03-23T13:53:22;21.02;;;19.67;;
21569;SDS011;57598;50.888;4.746;2024-03-23T13:55:50;20.33;;;18.95;;
21569;SDS011;57598;50.888;4.746;2024-03-23T13:58:16;22.27;;;20.52;;
21569;SDS011;57598;50.888;4.746;2024-03-23T14:00:43;20.25;;;19.02;;
21569;SDS011;57598;50.888;4.746;2024-03-23T14:03:11;19.75;;;18.55;;
21569;SDS011;57598;50.888;4.746;2024-03-23T14:05:38;20.92;;;19.48;;
21569;SDS011;57598;50.888;4.746;2024-03-23T14:08:05;19.95;;;18.77;;
21569;SDS011;57598;50.888;4.746;2024-03-23T14:10:32;21.73;;;20.33;;
21569;SDS011;57598;50.888;4.746;2024-03-23T14:12:59;20.52;;;19.27;;
21569;SDS011;57598;50.888;4.746;2024-03-23T14:15:26;22.15;;;20.50;;
21569;SDS011;57598;50.888;4.746;2024-03-23T14:17:52;20.73;;;19.42;;
21569;SDS011;57598;50.888;4.746;2024-03-23T14:20:21;20.15;;;18.80;;
21569;SDS011;57598;50.888;4.746;2024-03-23T14:22:47;20.40;;;19.10;;
21569;SDS011;57598;50.888;4.746;2024-03-23T14:25:15;23.48;;;21.00;;
21569;SDS011;57598;50.888;4.746;2024-03-23T14:27:42;20.30;;;19.10;;
21569;SDS011;57598;50.888;4.746;2024-03-23T14:30:10;23.83;;;21.77;;
21569;SDS011;57598;50.888;4.746;2024-03-23T14:32:37;22.10;;;20.73;;
21569;SDS011;57598;50.888;4.746;2024-03-23T14:35:04;23.67;;;22.17;;
21569;SDS011;57598;50.888;4.746;2024-03-23T14:37:32;23.63;;;22.13;;
21569;SDS011;57598;50.888;4.746;2024-03-23T14:39:59;24.02;;;22.63;;
21569;SDS011;57598;50.888;4.746;2024-03-23T14:42:27;24.63;;;23.15;;
21569;SDS011;57598;50.888;4.746;2024-03-23T14:44:56;24.67;;;23.27;;
21569;SDS011;57598;50.888;4.746;2024-03-23T14:47:22;24.95;;;23.23;;
21569;SDS011;57598;50.888;4.746;2024-03-23T14:49:49;23.35;;;21.95;;
21569;SDS011;57598;50.888;4.746;2024-03-23T14:52:16;21.30;;;20.10;;
21569;SDS011;57598;50.888;4.746;2024-03-23T14:54:45;22.23;;;20.92;;
21569;SDS011;57598;50.888;4.746;2024-03-23T14:57:11;21.42;;;20.13;;
21569;SDS011;57598;50.888;4.746;2024-03-23T14:59:38;20.58;;;19.27;;
21569;SDS011;57598;50.888;4.746;2024-03-23T15:02:06;19.60;;;18.50;;
21569;SDS011;57598;50.888;4.746;2024-03-23T15:04:33;20.63;;;19.33;;
21569;SDS011;57598;50.888;4.746;2024-03-23T15:06:59;20.70;;;19.50;;
21569;SDS011;57598;50.888;4.746;2024-03-23T15:09:26;20.40;;;19.10;;
21569;SDS011;57598;50.888;4.746;2024-03-23T15:11:54;22.00;;;19.95;;
21569;SDS011;57598;50.888;4.746;2024-03-23T15:14:21;20.25;;;19.05;;
21569;SDS011;57598;50.888;4.746;2024-03-23T15:16:49;21.08;;;19.45;;